Time;durP1;ratioP1;P1;durP2;ratioP2;P2;SDS_P1;SDS_P2;PMS_P1;PMS_P2;Temp;Humidity;BMP_temperature;BMP_pressure;BME280_temperature;BME280_humidity;BME280_pressure;Samples;Min_cycle;Max_cycle;Signal;HPM_P1;HPM_P2
2021/10/14 04:02:15;;;;;;;20.40;11.23;;;11.20;99.90;;;;;;5145748;23;20280;-67
2021/10/14 04:04:42;;;;;;;21.23;10.60;;;11.20;99.90;;;;;;4955733;29;20285;-67
2021/10/14 04:07:08;;;;;;;21.00;9.95;;;11.20;99.90;;;;;;4955009;28;20689;-67
2021/10/14 04:09:35;;;;;;;19.27;10.43;;;11.20;99.90;;;;;;4955168;29;20300;-66
2021/10/14 04:12:02;;;;;;;22.77;11.40;;;11.20;99.90;;;;;;4955540;29;20685;-66
2021/10/14 04:14:29;;;;;;;21.52;11.10;;;11.20;99.90;;;;;;4955544;29;20213;-68
2021/10/14 04:16:55;;;;;;;18.77;10.50;;;11.40;99.90;;;;;;4955554;29;20215;-68
2021/10/14 04:19:23;;;;;;;16.55;9.68;;;11.20;99.90;;;;;;4955801;29;20236;-68
2021/10/14 04:21:50;;;;;;;15.63;9.27;;;11.30;99.90;;;;;;4955554;29;20646;-68
2021/10/14 04:24:18;;;;;;;15.63;9.57;;;11.30;99.90;;;;;;4955002;29;20216;-71
2021/10/14 04:26:45;;;;;;;11.75;8.13;;;11.30;99.90;;;;;;4956121;29;20686;-71
2021/10/14 04:29:11;;;;;;;14.15;8.50;;;11.30;99.90;;;;;;4955796;29;20209;-70
2021/10/14 04:31:38;;;;;;;11.48;7.93;;;11.30;99.90;;;;;;4955565;29;20236;-70
2021/10/14 04:34:07;;;;;;;12.70;6.95;;;11.30;99.90;;;;;;4955661;29;20661;-70
2021/10/14 04:36:36;;;;;;;9.45;6.55;;;11.30;99.90;;;;;;4949499;28;20206;-71
2021/10/14 04:39:04;;;;;;;9.80;6.05;;;11.30;99.90;;;;;;4935688;29;20225;-70
2021/10/14 04:41:30;;;;;;;10.23;6.30;;;11.30;99.90;;;;;;4936740;29;20230;-70
2021/10/14 04:43:57;;;;;;;6.15;5.25;;;11.30;99.90;;;;;;4935963;29;20217;-70
2021/10/14 04:46:24;;;;;;;5.72;4.88;;;11.30;99.90;;;;;;4936466;29;20210;-70
2021/10/14 04:48:50;;;;;;;4.90;4.47;;;11.40;99.90;;;;;;4936454;29;20214;-71
2021/10/14 04:51:17;;;;;;;4.00;3.28;;;11.40;99.90;;;;;;4936102;29;20288;-71
2021/10/14 04:53:45;;;;;;;3.80;3.40;;;11.40;99.90;;;;;;4934439;29;20210;-70
2021/10/14 04:56:12;;;;;;;3.95;3.58;;;11.40;99.90;;;;;;4935884;29;20245;-70
2021/10/14 04:58:39;;;;;;;3.58;3.28;;;11.40;99.90;;;;;;4935550;29;20257;-70
2021/10/14 05:01:05;;;;;;;3.90;3.60;;;11.40;99.90;;;;;;4935711;29;20237;-72
2021/10/14 05:03:32;;;;;;;3.17;2.97;;;11.40;99.90;;;;;;4936001;29;20210;-72
2021/10/14 05:05:59;;;;;;;3.92;3.15;;;11.40;99.90;;;;;;4935842;29;20261;-71
2021/10/14 05:08:25;;;;;;;3.42;3.08;;;11.40;99.90;;;;;;4935150;29;20220;-72
2021/10/14 05:10:53;;;;;;;4.28;2.95;;;11.40;99.90;;;;;;4935996;29;20241;-72
2021/10/14 05:13:20;;;;;;;4.25;2.63;;;11.40;99.90;;;;;;4935417;29;20205;-72
2021/10/14 05:15:47;;;;;;;3.42;3.13;;;11.40;99.90;;;;;;4935968;29;20269;-72
2021/10/14 05:18:13;;;;;;;3.40;3.20;;;11.40;99.90;;;;;;4935649;29;20209;-71
2021/10/14 05:20:40;;;;;;;3.55;3.25;;;11.40;99.90;;;;;;4935477;29;20230;-71
2021/10/14 05:23:07;;;;;;;4.93;4.45;;;11.40;99.90;;;;;;4934354;29;20277;-71
2021/10/14 05:25:33;;;;;;;4.35;3.95;;;11.50;99.90;;;;;;4935198;29;20210;-71
2021/10/14 05:28:01;;;;;;;5.25;3.70;;;11.50;99.90;;;;;;4935368;29;20261;-72
2021/10/14 05:30:28;;;;;;;6.18;3.53;;;11.50;99.90;;;;;;4935463;29;20329;-72
2021/10/14 05:32:55;;;;;;;5.70;4.00;;;11.50;99.90;;;;;;4934653;29;20292;-72
2021/10/14 05:35:21;;;;;;;7.43;4.95;;;11.50;99.90;;;;;;4935275;29;20588;-72
2021/10/14 05:37:48;;;;;;;8.63;6.57;;;11.50;99.90;;;;;;4934278;29;20268;-72
2021/10/14 05:40:15;;;;;;;7.50;5.20;;;11.60;99.90;;;;;;4935214;29;20206;-72
2021/10/14 05:42:41;;;;;;;10.70;6.50;;;11.60;99.90;;;;;;4934915;29;20253;-72
2021/10/14 05:45:10;;;;;;;11.65;7.40;;;11.60;99.90;;;;;;4935358;29;20209;-72
2021/10/14 05:47:37;;;;;;;14.77;9.18;;;11.60;99.90;;;;;;4935108;29;20209;-72
2021/10/14 05:50:05;;;;;;;21.67;9.93;;;11.70;99.90;;;;;;4934834;29;20272;-72
2021/10/14 05:52:34;;;;;;;13.52;7.22;;;11.70;99.90;;;;;;4935323;29;20234;-72
2021/10/14 05:55:01;;;;;;;18.88;9.15;;;11.70;99.90;;;;;;4934792;29;20611;-69
2021/10/14 05:57:28;;;;;;;15.48;9.48;;;11.80;99.90;;;;;;4937206;28;20538;-72
2021/10/14 05:59:55;;;;;;;22.08;10.40;;;11.80;99.90;;;;;;4936397;29;20367;-72
2021/10/14 06:02:23;;;;;;;20.70;9.73;;;11.70;99.90;;;;;;4935247;29;20248;-71
2021/10/14 06:04:51;;;;;;;17.45;9.57;;;11.80;99.90;;;;;;4935906;29;20493;-70
2021/10/14 06:07:18;;;;;;;18.48;10.13;;;11.80;99.90;;;;;;4935403;29;20308;-70
2021/10/14 06:09:44;;;;;;;23.13;10.93;;;11.90;99.90;;;;;;4935549;29;20213;-70
2021/10/14 06:12:11;;;;;;;25.55;11.18;;;11.90;99.90;;;;;;4935540;29;20234;-70
2021/10/14 06:14:38;;;;;;;21.10;11.88;;;11.90;99.90;;;;;;4935676;29;20257;-70
2021/10/14 06:17:04;;;;;;;24.95;10.90;;;11.90;99.90;;;;;;4935726;29;20261;-71
2021/10/14 06:19:32;;;;;;;21.60;11.63;;;11.90;99.90;;;;;;4935798;29;20261;-70
2021/10/14 06:21:59;;;;;;;22.02;12.73;;;12.00;99.90;;;;;;4935381;29;20594;-71
2021/10/14 06:24:26;;;;;;;32.67;12.63;;;11.90;99.90;;;;;;4935292;29;20218;-71
2021/10/14 06:26:52;;;;;;;26.10;12.90;;;11.90;99.90;;;;;;4936272;29;20206;-70
2021/10/14 06:29:19;;;;;;;20.30;11.70;;;12.00;99.90;;;;;;4935856;29;20528;-71
2021/10/14 06:31:46;;;;;;;24.45;11.90;;;12.00;99.90;;;;;;4935530;29;20585;-71
2021/10/14 06:34:52;;;;;;;22.88;11.60;;;12.00;99.90;;;;;;4936292;29;20214;-70
2021/10/14 06:37:19;;;;;;;23.42;12.73;;;12.10;99.90;;;;;;4930239;29;20214;-72
2021/10/14 06:39:46;;;;;;;21.17;12.38;;;12.10;99.90;;;;;;4934561;29;20599;-71
2021/10/14 06:42:12;;;;;;;23.30;12.10;;;12.10;99.90;;;;;;4934532;29;20797;-71
2021/10/14 06:44:39;;;;;;;22.80;12.57;;;12.10;99.90;;;;;;4934628;29;20613;-72
2021/10/14 06:47:06;;;;;;;20.75;12.82;;;12.20;99.90;;;;;;4934680;29;20674;-72
2021/10/14 06:49:33;;;;;;;19.75;11.45;;;12.20;99.90;;;;;;4934732;29;20209;-71
2021/10/14 06:52:00;;;;;;;20.95;11.95;;;12.20;99.90;;;;;;4934324;29;20234;-71
2021/10/14 06:54:27;;;;;;;18.45;11.40;;;12.20;99.90;;;;;;4934537;29;20285;-72
2021/10/14 06:56:54;;;;;;;18.40;10.95;;;12.20;99.90;;;;;;4934932;29;20729;-72
2021/10/14 06:59:20;;;;;;;13.38;10.00;;;12.20;99.90;;;;;;4934491;29;20222;-71
2021/10/14 07:01:47;;;;;;;21.40;10.88;;;12.20;99.90;;;;;;4934371;29;20296;-72
2021/10/14 07:04:14;;;;;;;14.35;10.07;;;12.30;99.90;;;;;;4934370;29;20277;-72
2021/10/14 07:06:40;;;;;;;13.55;9.68;;;12.20;99.90;;;;;;4934540;29;20213;-72
2021/10/14 07:09:08;;;;;;;12.77;8.48;;;12.20;99.90;;;;;;4933375;29;20563;-73
2021/10/14 07:11:42;;;;;;;14.35;9.50;;;12.30;99.90;;;;;;4934093;29;20707;-72
2021/10/14 07:14:09;;;;;;;16.07;8.80;;;12.30;99.90;;;;;;4934641;28;20221;-71
2021/10/14 07:16:36;;;;;;;18.42;8.88;;;12.30;99.90;;;;;;4938015;29;20849;-72
2021/10/14 07:19:02;;;;;;;13.18;8.77;;;12.30;99.90;;;;;;4937505;29;20281;-73
2021/10/14 07:21:30;;;;;;;14.00;8.73;;;12.30;99.90;;;;;;4937822;29;20237;-72
2021/10/14 07:23:57;;;;;;;13.17;8.70;;;12.30;99.90;;;;;;4936568;29;20465;-71
2021/10/14 07:26:25;;;;;;;12.23;8.13;;;12.40;99.90;;;;;;4937515;29;20946;-71
2021/10/14 07:28:52;;;;;;;16.73;9.87;;;12.40;99.90;;;;;;4937322;29;21001;-71
2021/10/14 07:31:19;;;;;;;13.57;8.63;;;12.50;99.90;;;;;;4937292;29;20548;-71
2021/10/14 07:33:46;;;;;;;11.93;9.63;;;12.60;99.90;;;;;;4937304;29;20591;-72
2021/10/14 07:36:12;;;;;;;13.95;8.27;;;12.60;99.90;;;;;;4937456;29;20926;-71
2021/10/14 07:38:39;;;;;;;15.20;9.27;;;12.60;99.90;;;;;;4936264;29;20729;-70
2021/10/14 07:41:06;;;;;;;13.33;8.40;;;12.60;99.90;;;;;;4937183;29;20536;-71
2021/10/14 07:43:34;;;;;;;12.40;8.13;;;12.70;99.90;;;;;;4937223;29;20845;-71
2021/10/14 07:46:01;;;;;;;9.60;8.27;;;12.60;99.90;;;;;;4937239;29;20474;-71
2021/10/14 07:48:27;;;;;;;9.63;8.40;;;12.60;99.90;;;;;;4937219;29;20465;-74
2021/10/14 07:50:54;;;;;;;11.67;8.80;;;12.70;99.90;;;;;;4937152;29;20890;-71
2021/10/14 07:53:21;;;;;;;9.83;7.73;;;12.70;99.90;;;;;;4936288;29;20829;-72
2021/10/14 07:55:48;;;;;;;11.67;9.50;;;12.70;99.90;;;;;;4937159;29;20846;-71
2021/10/14 07:58:15;;;;;;;15.47;8.70;;;12.70;99.90;;;;;;4936924;29;20473;-72
2021/10/14 08:00:43;;;;;;;9.20;8.30;;;12.70;99.90;;;;;;4936813;29;20494;-72
2021/10/14 08:03:10;;;;;;;8.27;7.47;;;12.70;99.90;;;;;;4936765;29;20516;-72
2021/10/14 08:05:38;;;;;;;26.90;9.10;;;12.70;99.90;;;;;;4937028;29;20473;-71
2021/10/14 08:08:05;;;;;;;9.00;7.80;;;12.70;99.90;;;;;;4935969;29;20473;-71
2021/10/14 08:10:33;;;;;;;8.57;7.83;;;12.70;99.90;;;;;;4936775;29;20482;-72
2021/10/14 08:13:00;;;;;;;10.50;7.37;;;12.70;99.90;;;;;;4936576;29;20551;-72
2021/10/14 08:15:26;;;;;;;12.77;8.57;;;12.80;99.90;;;;;;4936989;29;20501;-72
2021/10/14 08:17:55;;;;;;;10.97;7.47;;;12.80;99.90;;;;;;4936403;29;20473;-72
2021/10/14 08:20:21;;;;;;;10.33;8.47;;;12.80;99.90;;;;;;4936729;29;20521;-72
2021/10/14 08:22:49;;;;;;;11.40;8.43;;;12.80;99.90;;;;;;4935376;29;20494;-71
2021/10/14 08:25:16;;;;;;;11.23;9.10;;;12.80;99.90;;;;;;4936635;29;20845;-72
2021/10/14 08:27:44;;;;;;;13.23;9.67;;;12.80;99.90;;;;;;4937377;29;20477;-71
2021/10/14 08:30:12;;;;;;;12.87;9.57;;;12.80;99.90;;;;;;4937155;29;21013;-71
2021/10/14 08:32:39;;;;;;;9.20;8.17;;;12.80;99.90;;;;;;4936869;29;20493;-70
2021/10/14 08:35:08;;;;;;;12.20;9.47;;;12.90;99.90;;;;;;4936584;29;20461;-71
2021/10/14 08:37:35;;;;;;;11.47;9.10;;;12.90;99.90;;;;;;4936146;29;20473;-72
2021/10/14 08:40:01;;;;;;;10.57;8.23;;;12.90;99.90;;;;;;4936154;29;20469;-72
2021/10/14 08:42:28;;;;;;;11.73;8.97;;;13.00;99.90;;;;;;4936232;29;20501;-72
2021/10/14 08:44:55;;;;;;;15.13;9.67;;;13.00;99.90;;;;;;4936282;29;20958;-72
2021/10/14 08:47:22;;;;;;;37.83;9.20;;;13.10;99.90;;;;;;4936164;29;20541;-73
2021/10/14 08:49:49;;;;;;;14.53;8.50;;;13.10;99.90;;;;;;4936060;29;20536;-72
2021/10/14 08:52:17;;;;;;;11.97;8.90;;;13.30;99.90;;;;;;4935715;29;20482;-72
2021/10/14 08:54:44;;;;;;;11.07;8.40;;;13.30;99.90;;;;;;4935755;29;20470;-71
2021/10/14 08:57:11;;;;;;;9.13;8.23;;;13.30;99.90;;;;;;4936079;29;20517;-71
2021/10/14 08:59:38;;;;;;;11.47;8.70;;;13.40;99.90;;;;;;4935917;29;20941;-71
2021/10/14 09:02:14;;;;;;;9.30;7.63;;;13.40;99.90;;;;;;4935524;29;20493;-71
2021/10/14 09:04:42;;;;;;;8.50;7.00;;;13.40;99.90;;;;;;4936197;29;20465;-72
2021/10/14 09:07:09;;;;;;;7.77;7.03;;;13.60;99.90;;;;;;4933561;29;21111;-71
2021/10/14 09:09:38;;;;;;;6.80;6.20;;;13.70;99.90;;;;;;4935669;29;20517;-71
2021/10/14 09:12:06;;;;;;;6.70;6.10;;;13.80;99.90;;;;;;4935826;29;20493;-71
2021/10/14 09:14:33;;;;;;;7.40;6.80;;;13.90;99.90;;;;;;4935946;29;20469;-70
2021/10/14 09:17:00;;;;;;;6.57;5.97;;;14.00;99.90;;;;;;4935993;29;20528;-71
2021/10/14 09:19:29;;;;;;;5.93;5.53;;;14.10;99.90;;;;;;4935874;29;20465;-71
2021/10/14 09:21:58;;;;;;;6.17;5.43;;;14.20;99.90;;;;;;4935300;29;20489;-71
2021/10/14 09:24:31;;;;;;;4.83;4.53;;;14.20;99.90;;;;;;4935043;29;20493;-70
2021/10/14 09:27:00;;;;;;;5.80;5.30;;;14.30;99.90;;;;;;4935392;29;20480;-71
2021/10/14 09:29:28;;;;;;;4.70;4.30;;;14.30;99.90;;;;;;4935399;29;20457;-71
2021/10/14 09:31:58;;;;;;;4.43;4.23;;;14.30;99.90;;;;;;4935342;29;20498;-71
2021/10/14 09:34:36;;;;;;;6.43;4.40;;;14.30;99.90;;;;;;4935424;29;20469;-71
2021/10/14 09:37:05;;;;;;;5.73;5.00;;;14.30;99.90;;;;;;4934391;29;20497;-71
2021/10/14 09:39:32;;;;;;;4.83;4.30;;;14.30;99.90;;;;;;4935368;29;20560;-71
2021/10/14 09:42:00;;;;;;;4.40;4.10;;;14.30;99.90;;;;;;4935015;29;20486;-71
2021/10/14 09:44:27;;;;;;;4.30;4.10;;;14.30;99.90;;;;;;4935636;29;20525;-73
2021/10/14 09:46:56;;;;;;;6.23;4.40;;;14.30;99.90;;;;;;4935236;29;20635;-73
2021/10/14 09:49:27;;;;;;;6.00;3.90;;;14.30;99.90;;;;;;4935537;29;20802;-73
2021/10/14 09:51:56;;;;;;;4.20;3.90;;;14.30;99.90;;;;;;4934988;29;20489;-72
2021/10/14 09:54:23;;;;;;;3.03;2.90;;;14.40;99.90;;;;;;4934694;29;20545;-72
2021/10/14 09:56:50;;;;;;;2.63;2.53;;;14.50;99.90;;;;;;4935393;29;20471;-71
2021/10/14 09:59:18;;;;;;;3.33;3.13;;;14.60;99.90;;;;;;4935313;29;21049;-72
2021/10/14 10:01:45;;;;;;;3.83;3.60;;;14.50;99.90;;;;;;4935435;29;20486;-72
2021/10/14 10:04:12;;;;;;;3.07;2.67;;;14.50;99.90;;;;;;4935067;29;20535;-71
2021/10/14 10:06:39;;;;;;;3.43;3.23;;;14.40;99.90;;;;;;4935794;29;20506;-71
2021/10/14 10:09:11;;;;;;;2.87;2.70;;;14.30;99.90;;;;;;4934791;29;20470;-71
2021/10/14 10:11:42;;;;;;;4.63;3.80;;;14.20;99.90;;;;;;4935844;29;20500;-72
2021/10/14 10:14:10;;;;;;;4.20;4.00;;;14.20;99.90;;;;;;4935109;29;20564;-71
2021/10/14 10:16:38;;;;;;;4.70;4.40;;;14.10;99.90;;;;;;4935602;29;20876;-72
2021/10/14 10:19:07;;;;;;;5.13;4.83;;;14.10;99.90;;;;;;4934818;29;20526;-73
2021/10/14 10:21:41;;;;;;;6.70;6.07;;;14.10;99.90;;;;;;4934866;29;20831;-72
2021/10/14 10:24:32;;;;;;;7.07;6.40;;;14.10;99.90;;;;;;4933751;29;20501;-73
2021/10/14 10:27:00;;;;;;;7.10;5.90;;;14.10;99.90;;;;;;4934964;29;20469;-72
2021/10/14 10:29:45;;;;;;;7.87;7.07;;;14.10;99.90;;;;;;4934721;29;20466;-72
2021/10/14 10:32:22;;;;;;;7.97;7.47;;;14.20;99.90;;;;;;4934776;29;20497;-73
2021/10/14 10:35:04;;;;;;;8.00;7.30;;;14.20;99.90;;;;;;4934756;29;20473;-73
2021/10/14 10:37:47;;;;;;;8.40;7.70;;;14.30;99.90;;;;;;4934253;29;20466;-72
2021/10/14 10:40:24;;;;;;;7.73;7.13;;;14.40;99.90;;;;;;4934616;29;20469;-72
2021/10/14 10:42:56;;;;;;;8.60;7.83;;;14.50;99.90;;;;;;4934609;29;20530;-72
2021/10/14 10:45:25;;;;;;;8.73;7.90;;;14.50;99.90;;;;;;4935323;29;20819;-71
2021/10/14 10:48:02;;;;;;;9.27;8.00;;;14.50;99.90;;;;;;4934912;29;20465;-71
2021/10/14 10:50:47;;;;;;;8.50;7.80;;;14.50;99.90;;;;;;4938693;29;20495;-71
2021/10/14 10:53:15;;;;;;;9.30;8.17;;;14.50;99.90;;;;;;4937924;29;20493;-71
2021/10/14 10:55:44;;;;;;;10.60;9.60;;;14.40;99.90;;;;;;4939013;29;20902;-70
2021/10/14 10:58:13;;;;;;;10.37;8.00;;;14.40;99.90;;;;;;4938629;29;20564;-71
2021/10/14 11:00:42;;;;;;;8.40;7.60;;;14.40;99.90;;;;;;4938475;29;20501;-70
2021/10/14 11:03:21;;;;;;;8.07;7.37;;;14.40;99.90;;;;;;4938671;29;20608;-72
2021/10/14 11:05:51;;;;;;;8.73;7.80;;;14.40;99.90;;;;;;4939643;29;20465;-70
2021/10/14 11:08:21;;;;;;;11.23;8.63;;;14.50;99.90;;;;;;4937584;29;20591;-71
2021/10/14 11:10:50;;;;;;;10.10;8.30;;;14.50;99.90;;;;;;4937967;29;20569;-70
2021/10/14 11:13:17;;;;;;;8.80;7.90;;;14.50;99.90;;;;;;4937573;29;20496;-72
2021/10/14 11:15:49;;;;;;;9.00;8.13;;;14.50;99.90;;;;;;4938278;29;20819;-69
2021/10/14 11:18:16;;;;;;;8.93;8.23;;;14.50;99.90;;;;;;4938106;29;20528;-71
2021/10/14 11:20:52;;;;;;;9.13;8.20;;;14.50;99.90;;;;;;4937833;29;20640;-71
2021/10/14 11:23:20;;;;;;;10.07;8.10;;;14.60;99.90;;;;;;4936770;29;20516;-71
2021/10/14 11:26:10;;;;;;;9.30;7.27;;;14.60;99.90;;;;;;4937839;29;20477;-72
2021/10/14 11:28:59;;;;;;;8.50;7.60;;;14.70;99.90;;;;;;4937728;29;20563;-73
2021/10/14 11:31:34;;;;;;;11.43;8.83;;;14.80;99.90;;;;;;4937919;29;20486;-71
2021/10/14 11:34:12;;;;;;;7.80;7.13;;;14.80;99.90;;;;;;4937419;29;20464;-71
2021/10/14 11:36:47;;;;;;;9.00;8.20;;;14.80;99.90;;;;;;4937700;29;20545;-70
2021/10/14 11:39:14;;;;;;;12.70;8.37;;;14.80;99.90;;;;;;4936880;29;20888;-70
2021/10/14 11:41:41;;;;;;;9.93;8.90;;;14.60;99.90;;;;;;4937859;29;20552;-70
2021/10/14 11:44:09;;;;;;;9.07;8.17;;;14.50;99.90;;;;;;4937484;29;20520;-71
2021/10/14 11:46:38;;;;;;;9.40;8.60;;;14.40;99.90;;;;;;4937362;29;20516;-70
2021/10/14 11:49:06;;;;;;;10.60;9.60;;;14.30;99.90;;;;;;4937248;29;20469;-70
2021/10/14 11:51:34;;;;;;;10.00;8.60;;;14.30;99.90;;;;;;4937287;29;20640;-70
2021/10/14 11:54:05;;;;;;;10.20;9.00;;;14.50;99.90;;;;;;4936299;29;20470;-68
2021/10/14 11:56:40;;;;;;;9.13;8.23;;;14.60;99.90;;;;;;4937147;29;20469;-68
2021/10/14 11:59:07;;;;;;;9.17;8.27;;;14.60;99.90;;;;;;4936647;29;20540;-69
2021/10/14 12:01:50;;;;;;;7.80;7.07;;;14.70;99.90;;;;;;4936363;29;20497;-68
2021/10/14 12:04:19;;;;;;;7.67;7.07;;;14.70;99.90;;;;;;4937225;29;20497;-68
2021/10/14 12:06:47;;;;;;;7.60;7.00;;;14.70;99.90;;;;;;4937332;29;20477;-68
2021/10/14 12:09:16;;;;;;;8.17;7.47;;;14.80;99.90;;;;;;4941216;29;20466;-68
2021/10/14 12:11:43;;;;;;;8.20;7.60;;;14.80;99.90;;;;;;4936883;29;20892;-68
2021/10/14 12:14:10;;;;;;;7.93;7.23;;;14.80;99.90;;;;;;4937045;29;20521;-68
2021/10/14 12:16:37;;;;;;;7.40;6.90;;;14.80;99.90;;;;;;4937115;29;20950;-72
2021/10/14 12:19:15;;;;;;;7.03;6.60;;;14.90;99.90;;;;;;4937011;29;20521;-72
2021/10/14 12:21:44;;;;;;;7.30;6.80;;;14.90;99.90;;;;;;4936684;29;20494;-72
2021/10/14 12:24:13;;;;;;;7.70;7.10;;;14.90;99.90;;;;;;4935592;29;20524;-72
2021/10/14 12:26:44;;;;;;;7.10;6.50;;;14.90;99.90;;;;;;4936209;29;20465;-72
2021/10/14 12:29:25;;;;;;;6.63;6.23;;;14.90;99.90;;;;;;4936736;29;20869;-72
2021/10/14 12:32:06;;;;;;;8.00;7.30;;;14.80;99.90;;;;;;4936734;29;20900;-72
2021/10/14 12:34:47;;;;;;;7.50;7.00;;;14.70;99.90;;;;;;4936491;29;20528;-72
2021/10/14 12:37:16;;;;;;;7.80;7.10;;;14.70;99.90;;;;;;4935525;29;20490;-71
2021/10/14 12:39:43;;;;;;;8.83;8.03;;;14.60;99.90;;;;;;4934656;29;20476;-71
2021/10/14 12:42:13;;;;;;;8.63;7.77;;;14.60;99.90;;;;;;4934964;29;20896;-72
2021/10/14 12:44:57;;;;;;;7.97;7.27;;;14.50;99.90;;;;;;4935005;29;20493;-71
2021/10/14 12:47:34;;;;;;;7.73;7.03;;;14.30;99.90;;;;;;4934741;29;20472;-70
2021/10/14 12:50:19;;;;;;;7.30;6.70;;;14.20;99.90;;;;;;4934873;29;20472;-71
2021/10/14 12:53:06;;;;;;;5.70;5.40;;;14.30;99.90;;;;;;4933624;29;20488;-71
2021/10/14 12:55:33;;;;;;;5.30;4.93;;;14.30;99.90;;;;;;4934552;29;21002;-72
2021/10/14 12:58:00;;;;;;;5.40;5.00;;;14.40;99.90;;;;;;4934686;29;20474;-72
2021/10/14 13:00:27;;;;;;;3.83;3.70;;;14.50;99.90;;;;;;4934735;29;20482;-71
2021/10/14 13:02:54;;;;;;;3.50;3.40;;;14.60;99.90;;;;;;4934472;29;20488;-71
2021/10/14 13:05:20;;;;;;;4.13;3.83;;;14.60;99.90;;;;;;4934619;29;20473;-73
2021/10/14 13:07:47;;;;;;;4.13;3.93;;;14.60;99.90;;;;;;4934189;29;20493;-71
2021/10/14 13:10:14;;;;;;;3.47;3.17;;;14.60;99.90;;;;;;4934534;29;20521;-70
2021/10/14 13:12:40;;;;;;;4.00;2.90;;;14.60;99.90;;;;;;4933779;29;20490;-69
2021/10/14 13:15:09;;;;;;;3.97;3.70;;;14.70;99.90;;;;;;4935046;29;20532;-69
2021/10/14 13:17:35;;;;;;;3.80;3.40;;;14.70;99.90;;;;;;4934881;29;20469;-71
2021/10/14 13:20:02;;;;;;;4.00;3.70;;;14.70;99.90;;;;;;4934368;29;20477;-70
2021/10/14 13:22:28;;;;;;;4.10;3.90;;;14.70;99.90;;;;;;4933746;29;20588;-71
2021/10/14 13:24:55;;;;;;;4.20;3.80;;;14.60;99.90;;;;;;4933846;29;20497;-71
2021/10/14 13:27:22;;;;;;;3.80;3.53;;;14.50;99.90;;;;;;4934467;29;20474;-73
2021/10/14 13:29:48;;;;;;;4.63;4.30;;;14.50;99.90;;;;;;4934589;29;20465;-70
2021/10/14 13:32:16;;;;;;;3.33;3.13;;;14.50;99.90;;;;;;4934068;29;20993;-73
2021/10/14 13:34:43;;;;;;;4.40;4.00;;;14.50;99.90;;;;;;4934449;29;20469;-71
2021/10/14 13:37:12;;;;;;;4.47;4.07;;;14.50;99.90;;;;;;4934153;29;20646;-70
2021/10/14 13:39:39;;;;;;;3.67;3.43;;;14.50;99.90;;;;;;4933856;29;20480;-71
2021/10/14 13:42:08;;;;;;;3.93;3.63;;;14.40;99.90;;;;;;4933610;29;20492;-71
2021/10/14 13:44:35;;;;;;;4.53;4.03;;;14.50;99.90;;;;;;4934056;29;20973;-71
2021/10/14 13:47:01;;;;;;;4.80;4.50;;;14.40;99.90;;;;;;4933733;29;20469;-71
2021/10/14 13:49:29;;;;;;;5.37;4.97;;;14.40;99.90;;;;;;4933692;29;20473;-72
2021/10/14 13:51:56;;;;;;;9.53;4.80;;;14.40;99.90;;;;;;4933144;29;20570;-70
2021/10/14 13:54:22;;;;;;;5.43;4.90;;;14.40;99.90;;;;;;4933133;29;20601;-71
2021/10/14 13:56:49;;;;;;;4.70;4.43;;;14.40;99.90;;;;;;4933902;29;20468;-70
2021/10/14 13:59:16;;;;;;;5.20;4.83;;;14.30;99.90;;;;;;4933610;29;20902;-70
2021/10/14 14:01:43;;;;;;;4.43;4.10;;;14.30;99.90;;;;;;4933652;29;20545;-69
2021/10/14 14:04:10;;;;;;;5.50;5.10;;;14.30;99.90;;;;;;4933239;29;20527;-69
2021/10/14 14:06:40;;;;;;;4.80;4.03;;;14.20;99.90;;;;;;4933457;29;20557;-70
2021/10/14 14:09:08;;;;;;;5.13;4.73;;;14.20;99.90;;;;;;4933038;29;20475;-70
2021/10/14 14:11:34;;;;;;;5.17;4.73;;;14.20;99.90;;;;;;4933701;29;21093;-70
2021/10/14 14:14:01;;;;;;;5.60;5.13;;;14.20;99.90;;;;;;4933406;29;20496;-70
2021/10/14 14:16:28;;;;;;;5.63;4.00;;;14.20;99.90;;;;;;4934049;29;20537;-69
2021/10/14 14:18:54;;;;;;;5.63;4.50;;;14.20;99.90;;;;;;4933392;29;20623;-70
2021/10/14 14:21:21;;;;;;;4.70;4.40;;;14.20;99.90;;;;;;4933514;29;20525;-70
2021/10/14 14:23:54;;;;;;;4.10;3.60;;;14.20;99.90;;;;;;4934549;29;20556;-69
2021/10/14 14:26:21;;;;;;;5.10;4.67;;;14.20;99.90;;;;;;4938009;29;20893;-69
2021/10/14 14:28:47;;;;;;;5.40;5.00;;;14.10;99.90;;;;;;4937693;29;20925;-70
2021/10/14 14:31:14;;;;;;;4.20;3.93;;;14.10;99.90;;;;;;4937339;29;21016;-69
2021/10/14 14:33:41;;;;;;;4.57;4.27;;;14.10;99.90;;;;;;4937276;29;20493;-71
2021/10/14 14:36:08;;;;;;;4.67;4.33;;;14.10;99.90;;;;;;4937448;29;21020;-73
2021/10/14 14:38:34;;;;;;;4.10;3.90;;;14.10;99.90;;;;;;4936548;29;20548;-71
2021/10/14 14:41:02;;;;;;;4.57;4.27;;;14.00;99.90;;;;;;4937210;29;20485;-70
2021/10/14 14:43:29;;;;;;;4.70;4.33;;;14.00;99.90;;;;;;4936644;29;21037;-71
2021/10/14 14:45:59;;;;;;;4.50;3.80;;;14.00;99.90;;;;;;4937362;29;21013;-72
2021/10/14 14:48:27;;;;;;;4.10;3.90;;;13.90;99.90;;;;;;4937074;29;20497;-73
2021/10/14 14:50:53;;;;;;;5.07;4.77;;;13.90;99.90;;;;;;4936961;29;20847;-73
2021/10/14 14:53:21;;;;;;;5.13;4.57;;;13.80;99.90;;;;;;4936151;29;20489;-72
2021/10/14 14:55:48;;;;;;;6.23;4.90;;;13.90;99.90;;;;;;4938072;29;20488;-72
2021/10/14 14:58:17;;;;;;;4.23;3.93;;;13.90;99.90;;;;;;4936897;29;20470;-71
2021/10/14 15:00:44;;;;;;;5.97;5.20;;;13.90;99.90;;;;;;4937273;29;20529;-71
2021/10/14 15:03:11;;;;;;;4.30;4.10;;;13.90;99.90;;;;;;4936663;29;20532;-72
2021/10/14 15:05:38;;;;;;;4.97;4.67;;;13.90;99.90;;;;;;4937284;29;20520;-73
2021/10/14 15:08:05;;;;;;;4.90;4.57;;;13.90;99.90;;;;;;4936156;29;20477;-72
2021/10/14 15:10:32;;;;;;;13.07;6.10;;;13.90;99.90;;;;;;4936776;29;20537;-71
2021/10/14 15:12:59;;;;;;;5.13;4.83;;;13.90;99.90;;;;;;4936331;29;20660;-71
2021/10/14 15:15:27;;;;;;;6.57;4.60;;;13.90;99.90;;;;;;4936517;29;20465;-71
2021/10/14 15:17:54;;;;;;;6.00;4.73;;;13.90;99.90;;;;;;4936401;29;20474;-71
2021/10/14 15:20:21;;;;;;;4.93;4.63;;;13.90;99.90;;;;;;4937452;29;20515;-72
2021/10/14 15:22:47;;;;;;;5.27;4.77;;;13.90;99.90;;;;;;4935655;29;20461;-71
2021/10/14 15:25:14;;;;;;;5.07;4.67;;;13.90;99.90;;;;;;4936419;29;20520;-72
2021/10/14 15:27:41;;;;;;;6.07;5.10;;;13.90;99.90;;;;;;4936143;29;20517;-70
2021/10/14 15:30:08;;;;;;;6.07;5.00;;;13.90;99.90;;;;;;4936439;29;20469;-70
2021/10/14 15:32:38;;;;;;;4.83;4.53;;;13.90;99.90;;;;;;4936017;29;21019;-71
2021/10/14 15:35:05;;;;;;;8.10;5.57;;;13.80;99.90;;;;;;4935052;29;20553;-70
2021/10/14 15:37:35;;;;;;;6.27;4.60;;;13.80;99.90;;;;;;4936610;29;20572;-71
2021/10/14 15:40:01;;;;;;;7.40;5.33;;;13.80;99.90;;;;;;4937252;29;20529;-71
2021/10/14 15:42:28;;;;;;;6.17;5.67;;;13.80;99.90;;;;;;4936715;29;20524;-71
2021/10/14 15:44:55;;;;;;;6.00;5.50;;;13.80;99.90;;;;;;4936897;29;20470;-71
2021/10/14 15:47:23;;;;;;;5.73;5.23;;;13.80;99.90;;;;;;4937504;29;20470;-71
2021/10/14 15:49:53;;;;;;;5.97;5.33;;;13.80;99.90;;;;;;4937447;29;20481;-72
2021/10/14 15:52:19;;;;;;;5.60;5.20;;;13.70;99.90;;;;;;4936514;29;20485;-71
2021/10/14 15:54:46;;;;;;;5.67;5.27;;;13.70;99.90;;;;;;4935538;29;20494;-70
2021/10/14 15:57:13;;;;;;;6.47;5.23;;;13.70;99.90;;;;;;4935933;29;20569;-70
2021/10/14 15:59:40;;;;;;;8.20;5.60;;;13.60;99.90;;;;;;4936077;29;20501;-69
2021/10/14 16:02:06;;;;;;;5.87;5.30;;;13.60;99.90;;;;;;4935467;29;20519;-69
2021/10/14 16:04:33;;;;;;;6.80;5.33;;;13.60;99.90;;;;;;4935515;29;20465;-70
2021/10/14 16:07:03;;;;;;;5.37;5.07;;;13.60;99.90;;;;;;4935080;29;20516;-69
2021/10/14 16:09:30;;;;;;;7.73;5.57;;;13.60;99.90;;;;;;4934988;29;20469;-69
2021/10/14 16:11:57;;;;;;;6.80;5.63;;;13.60;99.90;;;;;;4935332;29;20711;-70
2021/10/14 16:14:24;;;;;;;6.63;5.47;;;13.50;99.90;;;;;;4935260;29;20552;-70
2021/10/14 16:16:51;;;;;;;6.50;6.00;;;13.50;99.90;;;;;;4935267;29;20524;-70
2021/10/14 16:19:17;;;;;;;5.50;5.10;;;13.50;99.90;;;;;;4935281;29;20783;-69
2021/10/14 16:21:44;;;;;;;6.13;5.50;;;13.50;99.90;;;;;;4936117;29;20496;-69
2021/10/14 16:24:16;;;;;;;6.47;5.87;;;13.50;99.90;;;;;;4936541;29;20469;-68
2021/10/14 16:26:42;;;;;;;6.60;5.97;;;13.50;99.90;;;;;;4938112;29;20462;-68
2021/10/14 16:29:09;;;;;;;7.13;6.30;;;13.50;99.90;;;;;;4937568;29;20575;-68
2021/10/14 16:31:35;;;;;;;6.20;5.57;;;13.40;99.90;;;;;;4937229;29;20489;-68
2021/10/14 16:34:11;;;;;;;6.63;5.83;;;13.40;99.90;;;;;;4937309;29;20521;-68
2021/10/14 16:36:40;;;;;;;6.50;6.03;;;13.40;99.90;;;;;;4937533;29;20528;-69
2021/10/14 16:39:08;;;;;;;6.80;6.17;;;13.40;99.90;;;;;;4936038;29;20470;-69
2021/10/14 16:41:37;;;;;;;6.93;6.33;;;13.40;99.90;;;;;;4946056;29;20694;-69
2021/10/14 16:44:04;;;;;;;6.50;6.00;;;13.40;99.90;;;;;;4946091;29;20501;-70
2021/10/14 16:46:31;;;;;;;6.10;5.63;;;13.40;99.90;;;;;;4935405;29;20473;-69
2021/10/14 16:49:00;;;;;;;7.47;6.77;;;13.40;99.90;;;;;;4935491;29;20474;-69
2021/10/14 16:51:26;;;;;;;7.23;5.90;;;13.40;99.90;;;;;;4935506;29;20544;-70